KHRI

Details ICAO KHRI
Name HERMISTON MUNI
Region United States
Timezone America/Los_Angeles (UTC-7.0)
Plans Departing 6
Arriving 5
Stats Elevation 644 ft / 196 m (AMSL)
Location 45.828217° -119.259164°
Runways 1
Magnetic Variation 14.600° E
Sunrise 2018-05-23 12:18:29 UTC / 2018-05-23 05:18:29 Local
Sunset 2018-05-24 03:32:00 UTC / 2018-05-23 20:32:00 Local
Advertisement - Login to hide

Runways

ID Width Length Bearing (true) Bearing (mag) Surface Threshold Offset Overrun Length
04 75 ft / 23 m 4,491 ft / 1,369 m 62.26° 47.66° Asphalt 0 ft / 0 m 0 ft / 0 m
22 75 ft / 23 m 4,491 ft / 1,369 m 242.27° 227.67° Asphalt 0 ft / 0 m 0 ft / 0 m

Map

Weather


0- 5 10 15 20 25 30 35+ Temperature / ° C

Clouds and Precipitation
Forecast for 2018-05-23 18:00 UTC. Updated 6 hours ago

Ground ~20,000 ft ~40,000 ft Winds

METAR

KHRI 232153Z AUTO VRB03KT 10SM CLR 33/09 A2966 RMK AO2 SLP035 T03280094

TAF

Not found

Frequencies

Recorded 135.22 MHz ASOS
Approach 133.15 MHz CHINOOK APP/DEP
Unicom 122.80 MHz CTAF/UNICOM
Warning: Do not use this data for real-world aviation or navigation. No guarantee of current accuracy is given.